sensor_id;sensor_type;location;lat;lon;timestamp;temperature;humidity
24772;DHT22;12870;52.274;9.754;2022-11-20T00:01:11;-2.80;99.90
24772;DHT22;12870;52.274;9.754;2022-11-20T00:03:37;-2.80;99.90
24772;DHT22;12870;52.274;9.754;2022-11-20T00:06:05;-2.80;99.90
24772;DHT22;12870;52.274;9.754;2022-11-20T00:08:31;-2.80;99.90
24772;DHT22;12870;52.274;9.754;2022-11-20T00:10:57;-2.80;99.90
24772;DHT22;12870;52.274;9.754;2022-11-20T00:13:23;-2.90;99.90
24772;DHT22;12870;52.274;9.754;2022-11-20T00:15:48;-2.90;99.90
24772;DHT22;12870;52.274;9.754;2022-11-20T00:18:14;-2.90;99.90
24772;DHT22;12870;52.274;9.754;2022-11-20T00:20:40;-2.90;99.90
24772;DHT22;12870;52.274;9.754;2022-11-20T00:23:05;-2.90;99.90
24772;DHT22;12870;52.274;9.754;2022-11-20T00:25:34;-2.90;99.90
24772;DHT22;12870;52.274;9.754;2022-11-20T00:28:00;-2.90;99.90
24772;DHT22;12870;52.274;9.754;2022-11-20T00:30:25;-2.90;99.90
24772;DHT22;12870;52.274;9.754;2022-11-20T00:32:51;-3.00;99.90
24772;DHT22;12870;52.274;9.754;2022-11-20T00:35:16;-2.90;99.90
24772;DHT22;12870;52.274;9.754;2022-11-20T00:37:43;-2.90;99.90
24772;DHT22;12870;52.274;9.754;2022-11-20T00:40:09;-2.90;99.90
24772;DHT22;12870;52.274;9.754;2022-11-20T00:42:36;-2.90;99.90
24772;DHT22;12870;52.274;9.754;2022-11-20T00:45:02;-3.00;99.90
24772;DHT22;12870;52.274;9.754;2022-11-20T00:47:27;-3.00;99.90
24772;DHT22;12870;52.274;9.754;2022-11-20T00:49:53;-3.00;99.90
24772;DHT22;12870;52.274;9.754;2022-11-20T00:52:19;-3.00;99.90
24772;DHT22;12870;52.274;9.754;2022-11-20T00:54:44;-3.00;99.90
24772;DHT22;12870;52.274;9.754;2022-11-20T00:57:10;-3.00;99.90
24772;DHT22;12870;52.274;9.754;2022-11-20T00:59:36;-3.00;99.90
24772;DHT22;12870;52.274;9.754;2022-11-20T01:02:01;-3.10;99.90
24772;DHT22;12870;52.274;9.754;2022-11-20T01:04:27;-3.10;99.90
24772;DHT22;12870;52.274;9.754;2022-11-20T01:06:52;-3.10;99.90
24772;DHT22;12870;52.274;9.754;2022-11-20T01:09:18;-3.10;99.90
24772;DHT22;12870;52.274;9.754;2022-11-20T01:11:44;-3.10;99.90
24772;DHT22;12870;52.274;9.754;2022-11-20T01:14:14;-3.10;99.90
24772;DHT22;12870;52.274;9.754;2022-11-20T01:16:42;-3.10;99.90
24772;DHT22;12870;52.274;9.754;2022-11-20T01:19:14;-3.10;99.90
24772;DHT22;12870;52.274;9.754;2022-11-20T01:21:41;-3.10;99.90
24772;DHT22;12870;52.274;9.754;2022-11-20T01:24:10;-3.00;99.90
24772;DHT22;12870;52.274;9.754;2022-11-20T01:26:38;-3.10;99.90
24772;DHT22;12870;52.274;9.754;2022-11-20T01:29:05;-3.10;99.90
24772;DHT22;12870;52.274;9.754;2022-11-20T01:31:33;-3.10;99.90
24772;DHT22;12870;52.274;9.754;2022-11-20T01:34:07;-3.10;99.90
24772;DHT22;12870;52.274;9.754;2022-11-20T01:36:34;-3.10;99.90
24772;DHT22;12870;52.274;9.754;2022-11-20T01:39:06;-3.10;99.90
24772;DHT22;12870;52.274;9.754;2022-11-20T01:41:33;-3.10;99.90
24772;DHT22;12870;52.274;9.754;2022-11-20T01:44:21;-3.20;99.90
24772;DHT22;12870;52.274;9.754;2022-11-20T01:46:59;-3.10;99.90
24772;DHT22;12870;52.274;9.754;2022-11-20T01:49:40;-3.20;99.90
24772;DHT22;12870;52.274;9.754;2022-11-20T01:52:15;-3.20;99.90
24772;DHT22;12870;52.274;9.754;2022-11-20T01:54:55;-3.10;99.90
24772;DHT22;12870;52.274;9.754;2022-11-20T01:57:24;-3.10;99.90
24772;DHT22;12870;52.274;9.754;2022-11-20T01:59:57;-3.10;99.90
24772;DHT22;12870;52.274;9.754;2022-11-20T02:02:25;-3.10;99.90
24772;DHT22;12870;52.274;9.754;2022-11-20T02:04:54;-3.10;99.90
24772;DHT22;12870;52.274;9.754;2022-11-20T02:07:22;-3.10;99.90
24772;DHT22;12870;52.274;9.754;2022-11-20T02:09:49;-3.10;99.90
24772;DHT22;12870;52.274;9.754;2022-11-20T02:12:15;-3.10;99.90
24772;DHT22;12870;52.274;9.754;2022-11-20T02:14:59;-3.10;99.90
24772;DHT22;12870;52.274;9.754;2022-11-20T02:17:25;-3.10;99.90
24772;DHT22;12870;52.274;9.754;2022-11-20T02:19:51;-3.10;99.90
24772;DHT22;12870;52.274;9.754;2022-11-20T02:22:31;-3.00;99.90
24772;DHT22;12870;52.274;9.754;2022-11-20T02:25:01;-3.00;99.90
24772;DHT22;12870;52.274;9.754;2022-11-20T02:27:28;-3.00;99.90
24772;DHT22;12870;52.274;9.754;2022-11-20T02:30:00;-3.00;99.90
24772;DHT22;12870;52.274;9.754;2022-11-20T02:32:32;-3.00;99.90
24772;DHT22;12870;52.274;9.754;2022-11-20T02:35:06;-2.90;99.90
24772;DHT22;12870;52.274;9.754;2022-11-20T02:37:35;-2.90;99.90
24772;DHT22;12870;52.274;9.754;2022-11-20T02:40:02;-2.90;99.90
24772;DHT22;12870;52.274;9.754;2022-11-20T02:42:28;-2.90;99.90
24772;DHT22;12870;52.274;9.754;2022-11-20T02:44:54;-2.90;99.90
24772;DHT22;12870;52.274;9.754;2022-11-20T02:47:19;-2.90;99.90
24772;DHT22;12870;52.274;9.754;2022-11-20T02:49:45;-2.90;99.90
24772;DHT22;12870;52.274;9.754;2022-11-20T02:52:11;-2.90;99.90
24772;DHT22;12870;52.274;9.754;2022-11-20T02:54:36;-2.90;99.90
24772;DHT22;12870;52.274;9.754;2022-11-20T02:57:02;-3.00;99.90
24772;DHT22;12870;52.274;9.754;2022-11-20T02:59:28;-3.00;99.90
24772;DHT22;12870;52.274;9.754;2022-11-20T03:01:53;-3.00;99.90
24772;DHT22;12870;52.274;9.754;2022-11-20T03:04:19;-3.00;99.90
24772;DHT22;12870;52.274;9.754;2022-11-20T03:06:45;-3.00;99.90
24772;DHT22;12870;52.274;9.754;2022-11-20T03:09:11;-3.10;99.90
24772;DHT22;12870;52.274;9.754;2022-11-20T03:11:36;-3.10;99.90
24772;DHT22;12870;52.274;9.754;2022-11-20T03:14:04;-3.10;99.90
24772;DHT22;12870;52.274;9.754;2022-11-20T03:16:31;-3.10;99.90
24772;DHT22;12870;52.274;9.754;2022-11-20T03:18:57;-3.10;99.90
24772;DHT22;12870;52.274;9.754;2022-11-20T03:21:23;-3.10;99.90
24772;DHT22;12870;52.274;9.754;2022-11-20T03:23:49;-3.20;99.90
24772;DHT22;12870;52.274;9.754;2022-11-20T03:26:19;-3.20;99.90
24772;DHT22;12870;52.274;9.754;2022-11-20T03:28:52;-3.10;99.90
24772;DHT22;12870;52.274;9.754;2022-11-20T03:31:21;-3.10;99.90
24772;DHT22;12870;52.274;9.754;2022-11-20T03:33:47;-3.10;99.90
24772;DHT22;12870;52.274;9.754;2022-11-20T03:36:14;-3.10;99.90
24772;DHT22;12870;52.274;9.754;2022-11-20T03:38:41;-3.10;99.90
24772;DHT22;12870;52.274;9.754;2022-11-20T03:41:14;-3.10;99.90
24772;DHT22;12870;52.274;9.754;2022-11-20T03:43:39;-3.10;99.90
24772;DHT22;12870;52.274;9.754;2022-11-20T03:46:06;-3.00;99.90
24772;DHT22;12870;52.274;9.754;2022-11-20T03:48:31;-3.00;99.90
24772;DHT22;12870;52.274;9.754;2022-11-20T03:51:14;-3.00;99.90
24772;DHT22;12870;52.274;9.754;2022-11-20T03:53:43;-3.00;99.90
24772;DHT22;12870;52.274;9.754;2022-11-20T03:56:09;-2.90;99.90
24772;DHT22;12870;52.274;9.754;2022-11-20T03:58:37;-2.90;99.90
24772;DHT22;12870;52.274;9.754;2022-11-20T04:01:06;-2.90;99.90
24772;DHT22;12870;52.274;9.754;2022-11-20T04:03:32;-2.90;99.90
24772;DHT22;12870;52.274;9.754;2022-11-20T04:06:10;-2.90;99.90
24772;DHT22;12870;52.274;9.754;2022-11-20T04:08:36;-2.90;99.90
24772;DHT22;12870;52.274;9.754;2022-11-20T04:11:23;-2.90;99.90
24772;DHT22;12870;52.274;9.754;2022-11-20T04:13:51;-2.90;99.90
24772;DHT22;12870;52.274;9.754;2022-11-20T04:16:17;-3.00;99.90
24772;DHT22;12870;52.274;9.754;2022-11-20T04:18:44;-3.00;99.90
24772;DHT22;12870;52.274;9.754;2022-11-20T04:21:10;-3.00;99.90
24772;DHT22;12870;52.274;9.754;2022-11-20T04:23:36;-3.00;99.90
24772;DHT22;12870;52.274;9.754;2022-11-20T04:26:08;-3.00;99.90
24772;DHT22;12870;52.274;9.754;2022-11-20T04:28:34;-3.00;99.90
24772;DHT22;12870;52.274;9.754;2022-11-20T04:31:15;-3.00;99.90
24772;DHT22;12870;52.274;9.754;2022-11-20T04:33:41;-3.00;99.90
24772;DHT22;12870;52.274;9.754;2022-11-20T04:36:16;-3.00;99.90
24772;DHT22;12870;52.274;9.754;2022-11-20T04:38:42;-2.90;99.90
24772;DHT22;12870;52.274;9.754;2022-11-20T04:41:18;-2.90;99.90
24772;DHT22;12870;52.274;9.754;2022-11-20T04:43:48;-2.90;99.90
24772;DHT22;12870;52.274;9.754;2022-11-20T04:46:14;-2.90;99.90
24772;DHT22;12870;52.274;9.754;2022-11-20T04:48:40;-2.90;99.90
24772;DHT22;12870;52.274;9.754;2022-11-20T04:51:06;-2.90;99.90
24772;DHT22;12870;52.274;9.754;2022-11-20T04:53:32;-2.90;99.90
24772;DHT22;12870;52.274;9.754;2022-11-20T04:56:02;-2.90;99.90
24772;DHT22;12870;52.274;9.754;2022-11-20T04:58:28;-2.90;99.90
24772;DHT22;12870;52.274;9.754;2022-11-20T05:01:00;-2.90;99.90
24772;DHT22;12870;52.274;9.754;2022-11-20T05:03:25;-2.80;99.90
24772;DHT22;12870;52.274;9.754;2022-11-20T05:05:51;-2.80;99.90
24772;DHT22;12870;52.274;9.754;2022-11-20T05:08:16;-2.80;99.90
24772;DHT22;12870;52.274;9.754;2022-11-20T05:10:42;-2.70;99.90
24772;DHT22;12870;52.274;9.754;2022-11-20T05:13:08;-2.80;99.90
24772;DHT22;12870;52.274;9.754;2022-11-20T05:15:33;-2.70;99.90
24772;DHT22;12870;52.274;9.754;2022-11-20T05:17:59;-2.60;99.90
24772;DHT22;12870;52.274;9.754;2022-11-20T05:20:25;-2.60;99.90
24772;DHT22;12870;52.274;9.754;2022-11-20T05:22:50;-2.60;99.90
24772;DHT22;12870;52.274;9.754;2022-11-20T05:25:16;-2.60;99.90
24772;DHT22;12870;52.274;9.754;2022-11-20T05:27:41;-2.60;99.90
24772;DHT22;12870;52.274;9.754;2022-11-20T05:30:08;-2.60;99.90
24772;DHT22;12870;52.274;9.754;2022-11-20T05:32:34;-2.50;99.90
24772;DHT22;12870;52.274;9.754;2022-11-20T05:35:00;-2.50;99.90
24772;DHT22;12870;52.274;9.754;2022-11-20T05:37:25;-2.50;99.90
24772;DHT22;12870;52.274;9.754;2022-11-20T05:39:51;-2.50;99.90
24772;DHT22;12870;52.274;9.754;2022-11-20T05:42:17;-2.50;99.90
24772;DHT22;12870;52.274;9.754;2022-11-20T05:45:02;-2.40;99.90
24772;DHT22;12870;52.274;9.754;2022-11-20T05:47:32;-2.50;99.90
24772;DHT22;12870;52.274;9.754;2022-11-20T05:49:58;-2.40;99.90
24772;DHT22;12870;52.274;9.754;2022-11-20T05:52:24;-2.40;99.90
24772;DHT22;12870;52.274;9.754;2022-11-20T05:54:50;-2.40;99.90
24772;DHT22;12870;52.274;9.754;2022-11-20T05:57:16;-2.30;99.90
24772;DHT22;12870;52.274;9.754;2022-11-20T05:59:42;-2.30;99.90
24772;DHT22;12870;52.274;9.754;2022-11-20T06:02:07;-2.30;99.90
24772;DHT22;12870;52.274;9.754;2022-11-20T06:04:33;-2.30;99.90
24772;DHT22;12870;52.274;9.754;2022-11-20T06:06:59;-2.30;99.90
24772;DHT22;12870;52.274;9.754;2022-11-20T06:09:24;-2.30;99.90
24772;DHT22;12870;52.274;9.754;2022-11-20T06:11:50;-2.30;99.90
24772;DHT22;12870;52.274;9.754;2022-11-20T06:14:15;-2.30;99.90
24772;DHT22;12870;52.274;9.754;2022-11-20T06:16:41;-2.30;99.90
24772;DHT22;12870;52.274;9.754;2022-11-20T06:19:07;-2.30;99.90
24772;DHT22;12870;52.274;9.754;2022-11-20T06:21:32;-2.30;99.90
24772;DHT22;12870;52.274;9.754;2022-11-20T06:23:58;-2.40;99.90
24772;DHT22;12870;52.274;9.754;2022-11-20T06:26:26;-2.30;99.90
24772;DHT22;12870;52.274;9.754;2022-11-20T06:28:53;-2.30;99.90
24772;DHT22;12870;52.274;9.754;2022-11-20T06:31:21;-2.30;99.90
24772;DHT22;12870;52.274;9.754;2022-11-20T06:33:48;-2.30;99.90
24772;DHT22;12870;52.274;9.754;2022-11-20T06:36:15;-2.30;99.90
24772;DHT22;12870;52.274;9.754;2022-11-20T06:38:41;-2.30;99.90
24772;DHT22;12870;52.274;9.754;2022-11-20T06:41:11;-2.30;99.90
24772;DHT22;12870;52.274;9.754;2022-11-20T06:43:38;-2.30;99.90
24772;DHT22;12870;52.274;9.754;2022-11-20T06:46:04;-2.30;99.90
24772;DHT22;12870;52.274;9.754;2022-11-20T06:48:30;-2.30;99.90
24772;DHT22;12870;52.274;9.754;2022-11-20T06:50:56;-2.20;99.90
24772;DHT22;12870;52.274;9.754;2022-11-20T06:53:23;-2.20;99.90
24772;DHT22;12870;52.274;9.754;2022-11-20T06:55:50;-2.20;99.90
24772;DHT22;12870;52.274;9.754;2022-11-20T06:58:16;-2.20;99.90
24772;DHT22;12870;52.274;9.754;2022-11-20T07:00:42;-2.20;99.90
24772;DHT22;12870;52.274;9.754;2022-11-20T07:03:10;-2.20;99.90
24772;DHT22;12870;52.274;9.754;2022-11-20T07:05:37;-2.10;99.90
24772;DHT22;12870;52.274;9.754;2022-11-20T07:08:04;-2.10;99.90
24772;DHT22;12870;52.274;9.754;2022-11-20T07:10:30;-2.00;99.90
24772;DHT22;12870;52.274;9.754;2022-11-20T07:12:56;-1.90;99.90
24772;DHT22;12870;52.274;9.754;2022-11-20T07:15:23;-1.90;99.90
24772;DHT22;12870;52.274;9.754;2022-11-20T07:17:49;-1.90;99.90
24772;DHT22;12870;52.274;9.754;2022-11-20T07:20:15;-1.80;99.90
24772;DHT22;12870;52.274;9.754;2022-11-20T07:22:42;-1.90;99.90
24772;DHT22;12870;52.274;9.754;2022-11-20T07:25:08;-1.80;99.90
24772;DHT22;12870;52.274;9.754;2022-11-20T07:27:34;-1.80;99.90
24772;DHT22;12870;52.274;9.754;2022-11-20T07:30:00;-1.80;99.90
24772;DHT22;12870;52.274;9.754;2022-11-20T07:32:26;-1.80;99.90
24772;DHT22;12870;52.274;9.754;2022-11-20T07:34:52;-1.70;99.90
24772;DHT22;12870;52.274;9.754;2022-11-20T07:37:18;-1.70;99.90
24772;DHT22;12870;52.274;9.754;2022-11-20T07:39:43;-1.60;99.90
24772;DHT22;12870;52.274;9.754;2022-11-20T07:42:09;-1.60;99.90
24772;DHT22;12870;52.274;9.754;2022-11-20T07:44:37;-1.60;99.90
24772;DHT22;12870;52.274;9.754;2022-11-20T07:47:03;-1.50;99.90
24772;DHT22;12870;52.274;9.754;2022-11-20T07:49:29;-1.50;99.90
24772;DHT22;12870;52.274;9.754;2022-11-20T07:51:54;-1.50;99.90
24772;DHT22;12870;52.274;9.754;2022-11-20T07:54:21;-1.50;99.90
24772;DHT22;12870;52.274;9.754;2022-11-20T07:56:47;-1.50;99.90
24772;DHT22;12870;52.274;9.754;2022-11-20T07:59:13;-1.50;99.90
24772;DHT22;12870;52.274;9.754;2022-11-20T08:01:39;-1.50;99.90
24772;DHT22;12870;52.274;9.754;2022-11-20T08:04:05;-1.50;99.90
24772;DHT22;12870;52.274;9.754;2022-11-20T08:06:31;-1.50;99.90
24772;DHT22;12870;52.274;9.754;2022-11-20T08:08:57;-1.60;99.90
24772;DHT22;12870;52.274;9.754;2022-11-20T08:11:23;-1.70;99.90
24772;DHT22;12870;52.274;9.754;2022-11-20T08:14:07;-1.70;99.90
24772;DHT22;12870;52.274;9.754;2022-11-20T08:16:43;-1.70;99.90
24772;DHT22;12870;52.274;9.754;2022-11-20T08:19:10;-1.70;99.90
24772;DHT22;12870;52.274;9.754;2022-11-20T08:21:36;-1.70;99.90
24772;DHT22;12870;52.274;9.754;2022-11-20T08:24:02;-1.70;99.90
24772;DHT22;12870;52.274;9.754;2022-11-20T08:26:28;-1.70;99.90
24772;DHT22;12870;52.274;9.754;2022-11-20T08:28:55;-1.70;99.90
24772;DHT22;12870;52.274;9.754;2022-11-20T08:31:21;-1.60;99.90
24772;DHT22;12870;52.274;9.754;2022-11-20T08:33:47;-1.60;99.90
24772;DHT22;12870;52.274;9.754;2022-11-20T08:36:13;-1.60;99.90
24772;DHT22;12870;52.274;9.754;2022-11-20T08:38:39;-1.50;99.90
24772;DHT22;12870;52.274;9.754;2022-11-20T08:41:05;-1.40;99.90
24772;DHT22;12870;52.274;9.754;2022-11-20T08:46:18;-1.30;99.90
24772;DHT22;12870;52.274;9.754;2022-11-20T08:48:44;-1.30;99.90
24772;DHT22;12870;52.274;9.754;2022-11-20T08:51:11;-1.20;99.90
24772;DHT22;12870;52.274;9.754;2022-11-20T08:53:37;-1.10;99.90
24772;DHT22;12870;52.274;9.754;2022-11-20T08:56:03;-1.10;99.90
24772;DHT22;12870;52.274;9.754;2022-11-20T08:58:29;-1.00;99.90
24772;DHT22;12870;52.274;9.754;2022-11-20T09:00:55;-0.90;99.90
24772;DHT22;12870;52.274;9.754;2022-11-20T09:03:20;-0.90;99.90
24772;DHT22;12870;52.274;9.754;2022-11-20T09:05:46;-0.90;99.90
24772;DHT22;12870;52.274;9.754;2022-11-20T09:08:12;-0.90;99.90
24772;DHT22;12870;52.274;9.754;2022-11-20T09:10:38;-0.80;99.90
24772;DHT22;12870;52.274;9.754;2022-11-20T09:13:07;-0.80;99.90
24772;DHT22;12870;52.274;9.754;2022-11-20T09:15:32;-0.80;99.90
24772;DHT22;12870;52.274;9.754;2022-11-20T09:18:01;-0.70;99.90
24772;DHT22;12870;52.274;9.754;2022-11-20T09:20:28;-0.60;99.90
24772;DHT22;12870;52.274;9.754;2022-11-20T09:22:55;-0.50;99.90
24772;DHT22;12870;52.274;9.754;2022-11-20T09:25:21;-0.50;99.90
24772;DHT22;12870;52.274;9.754;2022-11-20T09:27:47;-0.50;99.90
24772;DHT22;12870;52.274;9.754;2022-11-20T09:30:16;-0.40;99.90
24772;DHT22;12870;52.274;9.754;2022-11-20T09:32:42;-0.30;99.90
24772;DHT22;12870;52.274;9.754;2022-11-20T09:35:09;-0.40;99.90
24772;DHT22;12870;52.274;9.754;2022-11-20T09:37:35;-0.30;99.90
24772;DHT22;12870;52.274;9.754;2022-11-20T09:40:01;-0.30;99.90
24772;DHT22;12870;52.274;9.754;2022-11-20T09:42:41;-0.30;99.90
24772;DHT22;12870;52.274;9.754;2022-11-20T09:56:14;-0.10;99.90
24772;DHT22;12870;52.274;9.754;2022-11-20T09:58:43;0.00;99.90
24772;DHT22;12870;52.274;9.754;2022-11-20T10:01:21;0.20;99.90
24772;DHT22;12870;52.274;9.754;2022-11-20T10:04:36;0.30;99.90
24772;DHT22;12870;52.274;9.754;2022-11-20T10:07:08;0.40;99.90
24772;DHT22;12870;52.274;9.754;2022-11-20T10:09:40;0.60;99.90
24772;DHT22;12870;52.274;9.754;2022-11-20T10:12:30;0.90;99.90
24772;DHT22;12870;52.274;9.754;2022-11-20T10:15:12;1.00;99.90
24772;DHT22;12870;52.274;9.754;2022-11-20T10:17:53;1.20;99.90
24772;DHT22;12870;52.274;9.754;2022-11-20T10:20:40;1.30;99.90
24772;DHT22;12870;52.274;9.754;2022-11-20T10:23:26;1.50;99.90
24772;DHT22;12870;52.274;9.754;2022-11-20T10:26:26;1.60;99.90
24772;DHT22;12870;52.274;9.754;2022-11-20T10:29:01;1.70;99.90
24772;DHT22;12870;52.274;9.754;2022-11-20T10:31:38;1.90;99.90
24772;DHT22;12870;52.274;9.754;2022-11-20T10:37:22;2.20;99.90
24772;DHT22;12870;52.274;9.754;2022-11-20T10:47:49;2.30;99.90
24772;DHT22;12870;52.274;9.754;2022-11-20T10:50:19;2.20;99.90
24772;DHT22;12870;52.274;9.754;2022-11-20T10:55:46;2.00;99.90
24772;DHT22;12870;52.274;9.754;2022-11-20T10:58:20;1.70;99.90
24772;DHT22;12870;52.274;9.754;2022-11-20T11:00:48;1.60;99.90
24772;DHT22;12870;52.274;9.754;2022-11-20T11:03:26;1.50;99.90
24772;DHT22;12870;52.274;9.754;2022-11-20T11:06:35;1.50;99.90
24772;DHT22;12870;52.274;9.754;2022-11-20T11:08:53;1.50;99.90
24772;DHT22;12870;52.274;9.754;2022-11-20T11:11:29;1.50;99.90
24772;DHT22;12870;52.274;9.754;2022-11-20T11:14:12;1.70;99.90
24772;DHT22;12870;52.274;9.754;2022-11-20T11:16:53;1.70;99.90
24772;DHT22;12870;52.274;9.754;2022-11-20T11:19:19;1.60;99.90
24772;DHT22;12870;52.274;9.754;2022-11-20T11:21:47;1.60;99.90
24772;DHT22;12870;52.274;9.754;2022-11-20T11:24:24;1.60;99.90
24772;DHT22;12870;52.274;9.754;2022-11-20T11:26:59;1.60;99.90
24772;DHT22;12870;52.274;9.754;2022-11-20T11:29:25;1.50;99.90
24772;DHT22;12870;52.274;9.754;2022-11-20T11:32:15;1.60;99.90
24772;DHT22;12870;52.274;9.754;2022-11-20T11:34:41;1.60;99.90
24772;DHT22;12870;52.274;9.754;2022-11-20T11:37:15;1.60;99.90
24772;DHT22;12870;52.274;9.754;2022-11-20T11:39:44;1.70;99.90
24772;DHT22;12870;52.274;9.754;2022-11-20T11:42:16;1.90;99.90
24772;DHT22;12870;52.274;9.754;2022-11-20T11:44:47;2.20;99.90
24772;DHT22;12870;52.274;9.754;2022-11-20T11:47:45;2.70;99.90
24772;DHT22;12870;52.274;9.754;2022-11-20T11:50:20;2.70;99.90
24772;DHT22;12870;52.274;9.754;2022-11-20T11:53:12;2.70;99.90
24772;DHT22;12870;52.274;9.754;2022-11-20T11:55:40;2.70;99.90
24772;DHT22;12870;52.274;9.754;2022-11-20T11:58:56;2.60;99.90
24772;DHT22;12870;52.274;9.754;2022-11-20T12:01:24;2.70;99.90
24772;DHT22;12870;52.274;9.754;2022-11-20T12:04:04;2.60;99.90
24772;DHT22;12870;52.274;9.754;2022-11-20T12:06:34;2.30;99.90
24772;DHT22;12870;52.274;9.754;2022-11-20T12:09:09;2.30;99.90
24772;DHT22;12870;52.274;9.754;2022-11-20T12:11:44;2.20;99.90
24772;DHT22;12870;52.274;9.754;2022-11-20T12:14:39;2.50;99.90
24772;DHT22;12870;52.274;9.754;2022-11-20T12:17:07;3.70;99.90
24772;DHT22;12870;52.274;9.754;2022-11-20T12:19:35;4.70;99.90
24772;DHT22;12870;52.274;9.754;2022-11-20T12:25:10;4.80;99.90
24772;DHT22;12870;52.274;9.754;2022-11-20T12:30:27;4.40;99.90
24772;DHT22;12870;52.274;9.754;2022-11-20T12:33:19;4.50;99.90
24772;DHT22;12870;52.274;9.754;2022-11-20T12:36:13;4.30;99.90
24772;DHT22;12870;52.274;9.754;2022-11-20T12:50:48;5.00;99.90
24772;DHT22;12870;52.274;9.754;2022-11-20T12:59:23;3.60;99.90
24772;DHT22;12870;52.274;9.754;2022-11-20T13:07:24;3.20;99.90
24772;DHT22;12870;52.274;9.754;2022-11-20T13:09:53;3.10;99.90
24772;DHT22;12870;52.274;9.754;2022-11-20T13:12:35;3.50;99.90
24772;DHT22;12870;52.274;9.754;2022-11-20T13:17:59;6.60;99.90
24772;DHT22;12870;52.274;9.754;2022-11-20T13:20:25;8.00;99.90
24772;DHT22;12870;52.274;9.754;2022-11-20T13:22:53;9.10;99.90
24772;DHT22;12870;52.274;9.754;2022-11-20T13:27:53;11.30;99.90
24772;DHT22;12870;52.274;9.754;2022-11-20T13:30:24;11.30;99.90
24772;DHT22;12870;52.274;9.754;2022-11-20T13:33:08;11.60;99.90
24772;DHT22;12870;52.274;9.754;2022-11-20T13:35:37;11.10;99.90
24772;DHT22;12870;52.274;9.754;2022-11-20T13:38:07;10.80;99.90
24772;DHT22;12870;52.274;9.754;2022-11-20T13:40:35;10.60;99.90
24772;DHT22;12870;52.274;9.754;2022-11-20T13:45:31;8.40;99.90
24772;DHT22;12870;52.274;9.754;2022-11-20T13:48:02;7.40;99.90
24772;DHT22;12870;52.274;9.754;2022-11-20T13:50:40;6.20;99.90
24772;DHT22;12870;52.274;9.754;2022-11-20T13:56:29;5.40;99.90
24772;DHT22;12870;52.274;9.754;2022-11-20T14:01:30;4.40;99.90
24772;DHT22;12870;52.274;9.754;2022-11-20T14:04:06;4.30;99.90
24772;DHT22;12870;52.274;9.754;2022-11-20T14:06:41;4.30;99.90
24772;DHT22;12870;52.274;9.754;2022-11-20T14:09:29;4.30;99.90
24772;DHT22;12870;52.274;9.754;2022-11-20T14:11:55;4.20;99.90
24772;DHT22;12870;52.274;9.754;2022-11-20T14:14:26;4.20;99.90
24772;DHT22;12870;52.274;9.754;2022-11-20T14:17:04;4.20;99.90
24772;DHT22;12870;52.274;9.754;2022-11-20T14:19:30;4.20;99.90
24772;DHT22;12870;52.274;9.754;2022-11-20T14:24:36;4.00;99.90
24772;DHT22;12870;52.274;9.754;2022-11-20T14:27:02;3.80;99.90
24772;DHT22;12870;52.274;9.754;2022-11-20T14:29:35;3.60;99.90
24772;DHT22;12870;52.274;9.754;2022-11-20T14:32:02;3.50;99.90
24772;DHT22;12870;52.274;9.754;2022-11-20T14:34:32;3.50;99.90
24772;DHT22;12870;52.274;9.754;2022-11-20T14:37:03;3.50;99.90
24772;DHT22;12870;52.274;9.754;2022-11-20T14:41:57;3.30;99.90
24772;DHT22;12870;52.274;9.754;2022-11-20T14:44:33;3.30;99.90
24772;DHT22;12870;52.274;9.754;2022-11-20T14:47:02;3.20;99.90
24772;DHT22;12870;52.274;9.754;2022-11-20T14:49:30;3.10;99.90
24772;DHT22;12870;52.274;9.754;2022-11-20T14:52:13;2.90;99.90
24772;DHT22;12870;52.274;9.754;2022-11-20T14:54:49;2.90;99.90
24772;DHT22;12870;52.274;9.754;2022-11-20T14:57:30;2.80;99.90
24772;DHT22;12870;52.274;9.754;2022-11-20T15:00:18;2.70;99.90
24772;DHT22;12870;52.274;9.754;2022-11-20T15:02:47;2.70;99.90
24772;DHT22;12870;52.274;9.754;2022-11-20T15:05:13;2.60;99.90
24772;DHT22;12870;52.274;9.754;2022-11-20T15:07:42;2.60;99.90
24772;DHT22;12870;52.274;9.754;2022-11-20T15:12:45;2.50;99.90
24772;DHT22;12870;52.274;9.754;2022-11-20T15:15:12;2.30;99.90
24772;DHT22;12870;52.274;9.754;2022-11-20T15:17:40;2.30;99.90
24772;DHT22;12870;52.274;9.754;2022-11-20T15:20:13;2.20;99.90
24772;DHT22;12870;52.274;9.754;2022-11-20T15:22:38;2.10;99.90
24772;DHT22;12870;52.274;9.754;2022-11-20T15:25:17;2.10;99.90
24772;DHT22;12870;52.274;9.754;2022-11-20T15:27:44;2.00;99.90
24772;DHT22;12870;52.274;9.754;2022-11-20T15:30:15;1.90;99.90
24772;DHT22;12870;52.274;9.754;2022-11-20T15:32:42;1.90;99.90
24772;DHT22;12870;52.274;9.754;2022-11-20T15:35:08;1.80;99.90
24772;DHT22;12870;52.274;9.754;2022-11-20T15:37:35;1.70;99.90
24772;DHT22;12870;52.274;9.754;2022-11-20T15:40:01;1.70;99.90
24772;DHT22;12870;52.274;9.754;2022-11-20T15:42:27;1.60;99.90
24772;DHT22;12870;52.274;9.754;2022-11-20T15:44:52;1.60;99.90
24772;DHT22;12870;52.274;9.754;2022-11-20T15:47:32;1.50;99.90
24772;DHT22;12870;52.274;9.754;2022-11-20T15:49:59;1.50;99.90
24772;DHT22;12870;52.274;9.754;2022-11-20T15:52:24;1.50;99.90
24772;DHT22;12870;52.274;9.754;2022-11-20T15:54:50;1.50;99.90
24772;DHT22;12870;52.274;9.754;2022-11-20T15:57:16;1.40;99.90
24772;DHT22;12870;52.274;9.754;2022-11-20T15:59:41;1.40;99.90
24772;DHT22;12870;52.274;9.754;2022-11-20T16:02:14;1.30;99.90
24772;DHT22;12870;52.274;9.754;2022-11-20T16:04:40;1.30;99.90
24772;DHT22;12870;52.274;9.754;2022-11-20T16:07:06;1.30;99.90
24772;DHT22;12870;52.274;9.754;2022-11-20T16:09:32;1.20;99.90
24772;DHT22;12870;52.274;9.754;2022-11-20T16:11:58;1.20;99.90
24772;DHT22;12870;52.274;9.754;2022-11-20T16:14:27;1.10;99.90
24772;DHT22;12870;52.274;9.754;2022-11-20T16:17:12;1.10;99.90
24772;DHT22;12870;52.274;9.754;2022-11-20T16:19:37;1.10;99.90
24772;DHT22;12870;52.274;9.754;2022-11-20T16:22:03;1.00;99.90
24772;DHT22;12870;52.274;9.754;2022-11-20T16:24:29;1.00;99.90
24772;DHT22;12870;52.274;9.754;2022-11-20T16:26:55;1.00;99.90
24772;DHT22;12870;52.274;9.754;2022-11-20T16:29:21;1.00;99.90
24772;DHT22;12870;52.274;9.754;2022-11-20T16:31:47;1.00;99.90
24772;DHT22;12870;52.274;9.754;2022-11-20T16:34:15;0.90;99.90
24772;DHT22;12870;52.274;9.754;2022-11-20T16:36:43;0.90;99.90
24772;DHT22;12870;52.274;9.754;2022-11-20T16:39:10;0.90;99.90
24772;DHT22;12870;52.274;9.754;2022-11-20T16:41:36;0.90;99.90
24772;DHT22;12870;52.274;9.754;2022-11-20T16:44:07;0.90;99.90
24772;DHT22;12870;52.274;9.754;2022-11-20T16:46:33;0.90;99.90
24772;DHT22;12870;52.274;9.754;2022-11-20T16:49:08;0.90;99.90
24772;DHT22;12870;52.274;9.754;2022-11-20T16:51:36;0.90;99.90
24772;DHT22;12870;52.274;9.754;2022-11-20T16:54:04;0.90;99.90
24772;DHT22;12870;52.274;9.754;2022-11-20T16:56:29;0.80;99.90
24772;DHT22;12870;52.274;9.754;2022-11-20T16:58:57;0.80;99.90
24772;DHT22;12870;52.274;9.754;2022-11-20T17:01:23;0.80;99.90
24772;DHT22;12870;52.274;9.754;2022-11-20T17:03:55;0.80;99.90
24772;DHT22;12870;52.274;9.754;2022-11-20T17:06:24;0.70;99.90
24772;DHT22;12870;52.274;9.754;2022-11-20T17:08:50;0.70;99.90
24772;DHT22;12870;52.274;9.754;2022-11-20T17:11:17;0.60;99.90